Terminal Aerodrome Forecast
Issued by NWS

Home | Current Version | Previous Version | Text Only | Print | Product List | Glossary On
Versions: 1 2 3 4 5 6 7 8 9 10 11 12 13 14 15 16 17 18 19 20 21 22 23 24 25 26 27 28 29 30 31 32 33 34 35 36 37 38 39 40 41 42 43 44 45 46 47
000
FTUS44 KEWX 261006 AAT
TAFSSF
TAF AMD
KSSF 261006Z 2610/2706 15009KT P6SM BKN021 OVC035
     FM261200 12008KT P6SM VCSH BKN015
     FM261700 08007KT P6SM BKN030
     FM262300 35012KT P6SM BKN017 PROB30 2623/2705 4SM -SHRA
     FM270500 03010G20KT P6SM VCSH BKN010=

USA.gov is the U.S. government's official web portal to all federal, state and local government web resources and services.